sensor_id;sensor_type;location;lat;lon;timestamp;temperature;humidity
22235;DHT22;11286;45.596;5.284;2023-02-28T00:00:28;1.80;99.90
22235;DHT22;11286;45.596;5.284;2023-02-28T00:02:54;1.90;99.90
22235;DHT22;11286;45.596;5.284;2023-02-28T00:05:22;2.00;99.90
22235;DHT22;11286;45.596;5.284;2023-02-28T00:07:48;2.30;99.90
22235;DHT22;11286;45.596;5.284;2023-02-28T00:12:46;2.50;99.90
22235;DHT22;11286;45.596;5.284;2023-02-28T00:15:12;1.90;99.90
22235;DHT22;11286;45.596;5.284;2023-02-28T00:17:38;1.70;99.90
22235;DHT22;11286;45.596;5.284;2023-02-28T00:20:06;2.00;99.90
22235;DHT22;11286;45.596;5.284;2023-02-28T00:22:43;2.10;99.90
22235;DHT22;11286;45.596;5.284;2023-02-28T00:25:12;2.00;99.90
22235;DHT22;11286;45.596;5.284;2023-02-28T00:27:38;2.20;99.90
22235;DHT22;11286;45.596;5.284;2023-02-28T00:30:07;1.60;99.90
22235;DHT22;11286;45.596;5.284;2023-02-28T00:32:33;1.60;99.90
22235;DHT22;11286;45.596;5.284;2023-02-28T00:35:00;1.70;99.90
22235;DHT22;11286;45.596;5.284;2023-02-28T00:37:25;2.00;99.90
22235;DHT22;11286;45.596;5.284;2023-02-28T00:39:51;2.00;99.90
22235;DHT22;11286;45.596;5.284;2023-02-28T00:42:17;1.80;99.90
22235;DHT22;11286;45.596;5.284;2023-02-28T00:44:42;2.20;99.90
22235;DHT22;11286;45.596;5.284;2023-02-28T00:47:08;2.30;99.90
22235;DHT22;11286;45.596;5.284;2023-02-28T00:49:33;2.30;99.90
22235;DHT22;11286;45.596;5.284;2023-02-28T00:51:59;2.40;99.90
22235;DHT22;11286;45.596;5.284;2023-02-28T00:54:25;2.60;99.90
22235;DHT22;11286;45.596;5.284;2023-02-28T00:56:50;2.00;99.90
22235;DHT22;11286;45.596;5.284;2023-02-28T00:59:16;1.90;99.90
22235;DHT22;11286;45.596;5.284;2023-02-28T01:01:43;2.00;99.90
22235;DHT22;11286;45.596;5.284;2023-02-28T01:04:09;2.00;99.90
22235;DHT22;11286;45.596;5.284;2023-02-28T01:06:35;2.00;99.90
22235;DHT22;11286;45.596;5.284;2023-02-28T01:09:03;2.60;99.90
22235;DHT22;11286;45.596;5.284;2023-02-28T01:11:29;2.10;99.90
22235;DHT22;11286;45.596;5.284;2023-02-28T01:13:55;2.00;99.90
22235;DHT22;11286;45.596;5.284;2023-02-28T01:16:20;2.50;99.90
22235;DHT22;11286;45.596;5.284;2023-02-28T01:18:46;2.10;99.90
22235;DHT22;11286;45.596;5.284;2023-02-28T01:21:14;2.20;99.90
22235;DHT22;11286;45.596;5.284;2023-02-28T01:23:40;2.80;99.90
22235;DHT22;11286;45.596;5.284;2023-02-28T01:26:13;2.90;99.90
22235;DHT22;11286;45.596;5.284;2023-02-28T01:28:40;2.60;99.90
22235;DHT22;11286;45.596;5.284;2023-02-28T01:31:08;2.90;99.90
22235;DHT22;11286;45.596;5.284;2023-02-28T01:33:34;2.90;99.90
22235;DHT22;11286;45.596;5.284;2023-02-28T01:36:23;2.40;99.90
22235;DHT22;11286;45.596;5.284;2023-02-28T01:38:47;2.50;99.90
22235;DHT22;11286;45.596;5.284;2023-02-28T01:46:11;2.90;99.90
22235;DHT22;11286;45.596;5.284;2023-02-28T01:48:42;2.70;99.90
22235;DHT22;11286;45.596;5.284;2023-02-28T01:51:18;2.60;99.90
22235;DHT22;11286;45.596;5.284;2023-02-28T01:53:49;3.10;99.90
22235;DHT22;11286;45.596;5.284;2023-02-28T01:56:20;3.10;99.90
22235;DHT22;11286;45.596;5.284;2023-02-28T01:58:52;3.10;99.90
22235;DHT22;11286;45.596;5.284;2023-02-28T02:01:19;2.60;99.90
22235;DHT22;11286;45.596;5.284;2023-02-28T02:03:54;3.10;99.90
22235;DHT22;11286;45.596;5.284;2023-02-28T02:06:25;3.20;99.90
22235;DHT22;11286;45.596;5.284;2023-02-28T02:08:53;2.60;99.90
22235;DHT22;11286;45.596;5.284;2023-02-28T02:11:20;3.10;99.90
22235;DHT22;11286;45.596;5.284;2023-02-28T02:24:54;2.80;99.90
22235;DHT22;11286;45.596;5.284;2023-02-28T02:32:53;2.60;99.90
22235;DHT22;11286;45.596;5.284;2023-02-28T02:38:39;2.60;99.90
22235;DHT22;11286;45.596;5.284;2023-02-28T02:41:32;2.50;99.90
22235;DHT22;11286;45.596;5.284;2023-02-28T02:46:43;2.60;99.90
22235;DHT22;11286;45.596;5.284;2023-02-28T02:49:15;2.80;99.90
22235;DHT22;11286;45.596;5.284;2023-02-28T02:51:43;2.60;99.90
22235;DHT22;11286;45.596;5.284;2023-02-28T02:54:30;2.60;99.90
22235;DHT22;11286;45.596;5.284;2023-02-28T02:57:01;2.50;99.90
22235;DHT22;11286;45.596;5.284;2023-02-28T02:59:28;3.00;99.90
22235;DHT22;11286;45.596;5.284;2023-02-28T03:02:01;2.70;99.90
22235;DHT22;11286;45.596;5.284;2023-02-28T03:04:32;2.90;99.90
22235;DHT22;11286;45.596;5.284;2023-02-28T03:06:58;2.80;99.90
22235;DHT22;11286;45.596;5.284;2023-02-28T03:09:26;2.30;99.90
22235;DHT22;11286;45.596;5.284;2023-02-28T03:11:54;2.80;99.90
22235;DHT22;11286;45.596;5.284;2023-02-28T03:14:48;2.40;99.90
22235;DHT22;11286;45.596;5.284;2023-02-28T03:17:50;2.70;99.90
22235;DHT22;11286;45.596;5.284;2023-02-28T03:20:27;2.40;99.90
22235;DHT22;11286;45.596;5.284;2023-02-28T03:26:06;2.90;99.90
22235;DHT22;11286;45.596;5.284;2023-02-28T03:31:23;2.50;99.90
22235;DHT22;11286;45.596;5.284;2023-02-28T03:36:34;2.40;99.90
22235;DHT22;11286;45.596;5.284;2023-02-28T03:39:08;2.30;99.90
22235;DHT22;11286;45.596;5.284;2023-02-28T03:41:45;3.00;99.90
22235;DHT22;11286;45.596;5.284;2023-02-28T03:44:38;2.30;99.90
22235;DHT22;11286;45.596;5.284;2023-02-28T03:47:12;2.40;99.90
22235;DHT22;11286;45.596;5.284;2023-02-28T03:49:48;2.30;99.90
22235;DHT22;11286;45.596;5.284;2023-02-28T03:52:17;2.60;99.90
22235;DHT22;11286;45.596;5.284;2023-02-28T03:54:54;2.30;99.90
22235;DHT22;11286;45.596;5.284;2023-02-28T04:00:36;2.10;99.90
22235;DHT22;11286;45.596;5.284;2023-02-28T04:03:04;2.20;99.90
22235;DHT22;11286;45.596;5.284;2023-02-28T04:05:30;2.70;99.90
22235;DHT22;11286;45.596;5.284;2023-02-28T04:08:07;2.80;99.90
22235;DHT22;11286;45.596;5.284;2023-02-28T04:10:33;2.20;99.90
22235;DHT22;11286;45.596;5.284;2023-02-28T04:12:58;2.10;99.90
22235;DHT22;11286;45.596;5.284;2023-02-28T04:15:24;2.00;99.90
22235;DHT22;11286;45.596;5.284;2023-02-28T04:17:50;2.20;99.90
22235;DHT22;11286;45.596;5.284;2023-02-28T04:20:16;2.10;99.90
22235;DHT22;11286;45.596;5.284;2023-02-28T04:22:42;2.00;99.90
22235;DHT22;11286;45.596;5.284;2023-02-28T04:25:07;2.00;99.90
22235;DHT22;11286;45.596;5.284;2023-02-28T04:27:33;1.90;99.90
22235;DHT22;11286;45.596;5.284;2023-02-28T04:29:59;1.80;99.90
22235;DHT22;11286;45.596;5.284;2023-02-28T04:32:25;1.80;99.90
22235;DHT22;11286;45.596;5.284;2023-02-28T04:34:51;1.70;99.90
22235;DHT22;11286;45.596;5.284;2023-02-28T04:37:16;2.00;99.90
22235;DHT22;11286;45.596;5.284;2023-02-28T04:39:42;2.40;99.90
22235;DHT22;11286;45.596;5.284;2023-02-28T04:42:08;2.10;99.90
22235;DHT22;11286;45.596;5.284;2023-02-28T04:44:34;1.80;99.90
22235;DHT22;11286;45.596;5.284;2023-02-28T04:46:59;2.30;99.90
22235;DHT22;11286;45.596;5.284;2023-02-28T04:49:25;1.80;99.90
22235;DHT22;11286;45.596;5.284;2023-02-28T04:51:51;1.80;99.90
22235;DHT22;11286;45.596;5.284;2023-02-28T04:54:18;2.30;99.90
22235;DHT22;11286;45.596;5.284;2023-02-28T04:56:44;2.20;99.90
22235;DHT22;11286;45.596;5.284;2023-02-28T04:59:09;1.80;99.90
22235;DHT22;11286;45.596;5.284;2023-02-28T05:01:35;1.80;99.90
22235;DHT22;11286;45.596;5.284;2023-02-28T05:04:03;2.10;99.90
22235;DHT22;11286;45.596;5.284;2023-02-28T05:06:31;1.80;99.90
22235;DHT22;11286;45.596;5.284;2023-02-28T05:08:57;1.70;99.90
22235;DHT22;11286;45.596;5.284;2023-02-28T05:11:29;1.90;99.90
22235;DHT22;11286;45.596;5.284;2023-02-28T05:13:58;2.00;99.90
22235;DHT22;11286;45.596;5.284;2023-02-28T05:16:24;2.20;99.90
22235;DHT22;11286;45.596;5.284;2023-02-28T05:18:50;2.10;99.90
22235;DHT22;11286;45.596;5.284;2023-02-28T05:23:55;1.50;99.90
22235;DHT22;11286;45.596;5.284;2023-02-28T05:26:21;1.60;99.90
22235;DHT22;11286;45.596;5.284;2023-02-28T05:28:47;1.60;99.90
22235;DHT22;11286;45.596;5.284;2023-02-28T05:31:13;2.00;99.90
22235;DHT22;11286;45.596;5.284;2023-02-28T05:33:39;1.70;99.90
22235;DHT22;11286;45.596;5.284;2023-02-28T05:36:05;1.80;99.90
22235;DHT22;11286;45.596;5.284;2023-02-28T05:38:31;1.90;99.90
22235;DHT22;11286;45.596;5.284;2023-02-28T05:40:57;1.70;99.90
22235;DHT22;11286;45.596;5.284;2023-02-28T05:43:23;1.60;99.90
22235;DHT22;11286;45.596;5.284;2023-02-28T05:45:49;1.60;99.90
22235;DHT22;11286;45.596;5.284;2023-02-28T05:48:14;2.30;99.90
22235;DHT22;11286;45.596;5.284;2023-02-28T05:50:40;1.70;99.90
22235;DHT22;11286;45.596;5.284;2023-02-28T05:53:07;1.60;99.90
22235;DHT22;11286;45.596;5.284;2023-02-28T05:55:33;2.00;99.90
22235;DHT22;11286;45.596;5.284;2023-02-28T05:58:01;1.60;99.90
22235;DHT22;11286;45.596;5.284;2023-02-28T06:00:26;1.60;99.90
22235;DHT22;11286;45.596;5.284;2023-02-28T06:02:53;1.60;99.90
22235;DHT22;11286;45.596;5.284;2023-02-28T06:05:21;2.30;99.90
22235;DHT22;11286;45.596;5.284;2023-02-28T06:07:47;1.60;99.90
22235;DHT22;11286;45.596;5.284;2023-02-28T06:10:14;1.50;99.90
22235;DHT22;11286;45.596;5.284;2023-02-28T06:12:40;1.80;99.90
22235;DHT22;11286;45.596;5.284;2023-02-28T06:15:10;1.50;99.90
22235;DHT22;11286;45.596;5.284;2023-02-28T06:17:37;1.50;99.90
22235;DHT22;11286;45.596;5.284;2023-02-28T06:20:03;1.40;99.90
22235;DHT22;11286;45.596;5.284;2023-02-28T06:22:29;1.40;99.90
22235;DHT22;11286;45.596;5.284;2023-02-28T06:24:55;1.40;99.90
22235;DHT22;11286;45.596;5.284;2023-02-28T06:27:22;1.90;99.90
22235;DHT22;11286;45.596;5.284;2023-02-28T06:29:48;1.40;99.90
22235;DHT22;11286;45.596;5.284;2023-02-28T06:32:13;1.30;99.90
22235;DHT22;11286;45.596;5.284;2023-02-28T06:34:39;1.40;99.90
22235;DHT22;11286;45.596;5.284;2023-02-28T06:37:05;2.00;99.90
22235;DHT22;11286;45.596;5.284;2023-02-28T06:39:31;1.90;99.90
22235;DHT22;11286;45.596;5.284;2023-02-28T06:41:57;1.40;99.90
22235;DHT22;11286;45.596;5.284;2023-02-28T06:44:23;1.80;99.90
22235;DHT22;11286;45.596;5.284;2023-02-28T06:46:49;1.60;99.90
22235;DHT22;11286;45.596;5.284;2023-02-28T06:49:15;1.60;99.90
22235;DHT22;11286;45.596;5.284;2023-02-28T06:51:42;1.60;99.90
22235;DHT22;11286;45.596;5.284;2023-02-28T06:54:10;1.50;99.90
22235;DHT22;11286;45.596;5.284;2023-02-28T06:56:36;1.50;99.90
22235;DHT22;11286;45.596;5.284;2023-02-28T06:59:02;1.80;99.90
22235;DHT22;11286;45.596;5.284;2023-02-28T07:01:29;2.10;99.90
22235;DHT22;11286;45.596;5.284;2023-02-28T07:03:55;1.60;99.90
22235;DHT22;11286;45.596;5.284;2023-02-28T07:06:24;1.70;99.90
22235;DHT22;11286;45.596;5.284;2023-02-28T07:08:53;2.20;99.90
22235;DHT22;11286;45.596;5.284;2023-02-28T07:11:20;1.90;99.90
22235;DHT22;11286;45.596;5.284;2023-02-28T07:13:48;1.80;99.90
22235;DHT22;11286;45.596;5.284;2023-02-28T07:16:13;1.80;99.90
22235;DHT22;11286;45.596;5.284;2023-02-28T07:18:39;2.20;99.90
22235;DHT22;11286;45.596;5.284;2023-02-28T07:21:07;1.50;99.90
22235;DHT22;11286;45.596;5.284;2023-02-28T07:23:33;1.70;99.90
22235;DHT22;11286;45.596;5.284;2023-02-28T07:25:59;1.60;99.90
22235;DHT22;11286;45.596;5.284;2023-02-28T07:28:25;1.70;99.90
22235;DHT22;11286;45.596;5.284;2023-02-28T07:30:50;1.80;99.90
22235;DHT22;11286;45.596;5.284;2023-02-28T07:33:16;1.70;99.90
22235;DHT22;11286;45.596;5.284;2023-02-28T07:35:42;1.60;99.90
22235;DHT22;11286;45.596;5.284;2023-02-28T07:38:08;1.80;99.90
22235;DHT22;11286;45.596;5.284;2023-02-28T07:40:35;1.70;99.90
22235;DHT22;11286;45.596;5.284;2023-02-28T07:43:01;2.30;99.90
22235;DHT22;11286;45.596;5.284;2023-02-28T07:45:28;1.60;99.90
22235;DHT22;11286;45.596;5.284;2023-02-28T07:47:55;2.20;99.90
22235;DHT22;11286;45.596;5.284;2023-02-28T07:50:21;1.80;99.90
22235;DHT22;11286;45.596;5.284;2023-02-28T07:52:46;1.80;99.90
22235;DHT22;11286;45.596;5.284;2023-02-28T07:55:12;2.00;99.90
22235;DHT22;11286;45.596;5.284;2023-02-28T07:57:39;2.20;99.90
22235;DHT22;11286;45.596;5.284;2023-02-28T08:00:07;2.10;99.90
22235;DHT22;11286;45.596;5.284;2023-02-28T08:02:35;2.10;99.90
22235;DHT22;11286;45.596;5.284;2023-02-28T08:05:01;2.40;99.90
22235;DHT22;11286;45.596;5.284;2023-02-28T08:07:27;2.30;99.90
22235;DHT22;11286;45.596;5.284;2023-02-28T08:09:53;2.90;99.90
22235;DHT22;11286;45.596;5.284;2023-02-28T08:12:18;3.20;99.90
22235;DHT22;11286;45.596;5.284;2023-02-28T08:14:44;2.40;99.90
22235;DHT22;11286;45.596;5.284;2023-02-28T08:17:10;3.00;99.90
22235;DHT22;11286;45.596;5.284;2023-02-28T08:19:36;3.00;99.90
22235;DHT22;11286;45.596;5.284;2023-02-28T08:22:02;2.60;99.90
22235;DHT22;11286;45.596;5.284;2023-02-28T08:24:28;2.70;99.90
22235;DHT22;11286;45.596;5.284;2023-02-28T08:26:54;2.80;99.90
22235;DHT22;11286;45.596;5.284;2023-02-28T08:29:20;2.60;99.90
22235;DHT22;11286;45.596;5.284;2023-02-28T08:31:46;3.00;99.90
22235;DHT22;11286;45.596;5.284;2023-02-28T08:34:14;2.90;99.90
22235;DHT22;11286;45.596;5.284;2023-02-28T08:36:40;3.40;99.90
22235;DHT22;11286;45.596;5.284;2023-02-28T08:39:06;3.50;99.90
22235;DHT22;11286;45.596;5.284;2023-02-28T08:41:33;3.50;99.90
22235;DHT22;11286;45.596;5.284;2023-02-28T08:43:58;3.60;99.90
22235;DHT22;11286;45.596;5.284;2023-02-28T08:46:25;3.30;99.90
22235;DHT22;11286;45.596;5.284;2023-02-28T08:48:52;3.50;99.90
22235;DHT22;11286;45.596;5.284;2023-02-28T08:51:19;3.50;99.90
22235;DHT22;11286;45.596;5.284;2023-02-28T08:53:52;3.70;99.90
22235;DHT22;11286;45.596;5.284;2023-02-28T08:56:19;3.40;99.90
22235;DHT22;11286;45.596;5.284;2023-02-28T08:58:46;3.40;99.90
22235;DHT22;11286;45.596;5.284;2023-02-28T09:01:20;3.50;99.90
22235;DHT22;11286;45.596;5.284;2023-02-28T09:03:47;3.60;99.90
22235;DHT22;11286;45.596;5.284;2023-02-28T09:06:14;4.10;99.90
22235;DHT22;11286;45.596;5.284;2023-02-28T09:08:40;3.80;99.90
22235;DHT22;11286;45.596;5.284;2023-02-28T09:11:07;4.10;99.90
22235;DHT22;11286;45.596;5.284;2023-02-28T09:13:33;3.90;99.90
22235;DHT22;11286;45.596;5.284;2023-02-28T09:16:00;4.30;99.90
22235;DHT22;11286;45.596;5.284;2023-02-28T09:18:26;4.00;99.90
22235;DHT22;11286;45.596;5.284;2023-02-28T09:20:52;4.10;99.90
22235;DHT22;11286;45.596;5.284;2023-02-28T09:23:18;4.30;99.90
22235;DHT22;11286;45.596;5.284;2023-02-28T09:25:52;4.10;99.90
22235;DHT22;11286;45.596;5.284;2023-02-28T09:28:18;4.40;99.90
22235;DHT22;11286;45.596;5.284;2023-02-28T09:30:45;4.80;99.90
22235;DHT22;11286;45.596;5.284;2023-02-28T09:33:12;5.50;99.90
22235;DHT22;11286;45.596;5.284;2023-02-28T09:35:37;5.80;99.90
22235;DHT22;11286;45.596;5.284;2023-02-28T09:38:04;5.70;99.90
22235;DHT22;11286;45.596;5.284;2023-02-28T09:40:30;5.00;99.90
22235;DHT22;11286;45.596;5.284;2023-02-28T09:42:57;5.50;99.90
22235;DHT22;11286;45.596;5.284;2023-02-28T09:45:33;5.80;99.90
22235;DHT22;11286;45.596;5.284;2023-02-28T09:48:02;5.50;99.90
22235;DHT22;11286;45.596;5.284;2023-02-28T09:50:36;5.60;99.90
22235;DHT22;11286;45.596;5.284;2023-02-28T09:53:10;5.70;99.90
22235;DHT22;11286;45.596;5.284;2023-02-28T09:58:37;6.80;99.90
22235;DHT22;11286;45.596;5.284;2023-02-28T10:07:01;7.20;99.90
22235;DHT22;11286;45.596;5.284;2023-02-28T10:09:32;7.30;99.90
22235;DHT22;11286;45.596;5.284;2023-02-28T10:12:05;7.30;99.90
22235;DHT22;11286;45.596;5.284;2023-02-28T10:14:33;7.70;99.90
22235;DHT22;11286;45.596;5.284;2023-02-28T10:17:13;7.90;99.90
22235;DHT22;11286;45.596;5.284;2023-02-28T10:22:23;7.20;99.90
22235;DHT22;11286;45.596;5.284;2023-02-28T10:24:53;7.50;99.90
22235;DHT22;11286;45.596;5.284;2023-02-28T10:27:25;7.10;99.90
22235;DHT22;11286;45.596;5.284;2023-02-28T10:29:52;7.10;99.90
22235;DHT22;11286;45.596;5.284;2023-02-28T10:32:24;7.50;99.90
22235;DHT22;11286;45.596;5.284;2023-02-28T10:35:23;7.80;99.90
22235;DHT22;11286;45.596;5.284;2023-02-28T10:37:55;7.40;99.90
22235;DHT22;11286;45.596;5.284;2023-02-28T10:43:03;7.60;99.90
22235;DHT22;11286;45.596;5.284;2023-02-28T10:45:34;7.40;99.90
22235;DHT22;11286;45.596;5.284;2023-02-28T10:50:51;8.10;99.90
22235;DHT22;11286;45.596;5.284;2023-02-28T10:53:30;8.40;99.90
22235;DHT22;11286;45.596;5.284;2023-02-28T11:01:17;8.60;99.90
22235;DHT22;11286;45.596;5.284;2023-02-28T11:03:43;8.60;99.90
22235;DHT22;11286;45.596;5.284;2023-02-28T11:06:32;9.20;99.90
22235;DHT22;11286;45.596;5.284;2023-02-28T11:09:02;8.90;99.90
22235;DHT22;11286;45.596;5.284;2023-02-28T11:11:29;8.70;99.90
22235;DHT22;11286;45.596;5.284;2023-02-28T11:14:03;8.80;99.90
22235;DHT22;11286;45.596;5.284;2023-02-28T11:16:37;10.00;99.90
22235;DHT22;11286;45.596;5.284;2023-02-28T11:19:04;10.60;99.90
22235;DHT22;11286;45.596;5.284;2023-02-28T11:21:36;10.50;99.90
22235;DHT22;11286;45.596;5.284;2023-02-28T11:24:12;11.10;99.90
22235;DHT22;11286;45.596;5.284;2023-02-28T11:26:45;11.60;99.90
22235;DHT22;11286;45.596;5.284;2023-02-28T11:29:32;12.00;99.90
22235;DHT22;11286;45.596;5.284;2023-02-28T11:34:32;11.20;99.90
22235;DHT22;11286;45.596;5.284;2023-02-28T11:36:59;10.90;99.90
22235;DHT22;11286;45.596;5.284;2023-02-28T11:39:26;10.00;99.90
22235;DHT22;11286;45.596;5.284;2023-02-28T11:41:55;9.80;99.90
22235;DHT22;11286;45.596;5.284;2023-02-28T11:47:03;9.30;99.90
22235;DHT22;11286;45.596;5.284;2023-02-28T11:49:43;9.10;99.90
22235;DHT22;11286;45.596;5.284;2023-02-28T11:55:16;8.70;99.90
22235;DHT22;11286;45.596;5.284;2023-02-28T12:03:13;8.70;99.90
22235;DHT22;11286;45.596;5.284;2023-02-28T12:05:47;9.00;99.90
22235;DHT22;11286;45.596;5.284;2023-02-28T12:14:31;8.40;99.90
22235;DHT22;11286;45.596;5.284;2023-02-28T12:19:44;7.90;99.90
22235;DHT22;11286;45.596;5.284;2023-02-28T12:22:27;8.10;99.90
22235;DHT22;11286;45.596;5.284;2023-02-28T12:27:43;8.30;99.90
22235;DHT22;11286;45.596;5.284;2023-02-28T12:30:18;7.60;99.90
22235;DHT22;11286;45.596;5.284;2023-02-28T12:32:55;7.80;99.90
22235;DHT22;11286;45.596;5.284;2023-02-28T12:35:26;8.10;99.90
22235;DHT22;11286;45.596;5.284;2023-02-28T12:38:02;8.00;99.90
22235;DHT22;11286;45.596;5.284;2023-02-28T12:40:44;7.50;99.90
22235;DHT22;11286;45.596;5.284;2023-02-28T12:43:13;7.90;99.90
22235;DHT22;11286;45.596;5.284;2023-02-28T12:48:31;8.00;99.90
22235;DHT22;11286;45.596;5.284;2023-02-28T12:50:59;7.40;99.90
22235;DHT22;11286;45.596;5.284;2023-02-28T12:57:02;7.50;99.90
22235;DHT22;11286;45.596;5.284;2023-02-28T12:59:53;7.80;99.90
22235;DHT22;11286;45.596;5.284;2023-02-28T13:02:33;8.10;99.90
22235;DHT22;11286;45.596;5.284;2023-02-28T13:10:50;7.80;99.90
22235;DHT22;11286;45.596;5.284;2023-02-28T13:13:28;7.90;99.90
22235;DHT22;11286;45.596;5.284;2023-02-28T13:16:14;7.90;99.90
22235;DHT22;11286;45.596;5.284;2023-02-28T13:18:43;8.10;99.90
22235;DHT22;11286;45.596;5.284;2023-02-28T13:21:26;8.00;99.90
22235;DHT22;11286;45.596;5.284;2023-02-28T13:26:22;8.40;99.90
22235;DHT22;11286;45.596;5.284;2023-02-28T13:31:23;8.70;99.90
22235;DHT22;11286;45.596;5.284;2023-02-28T13:36:26;8.50;99.90
22235;DHT22;11286;45.596;5.284;2023-02-28T13:38:59;8.90;99.90
22235;DHT22;11286;45.596;5.284;2023-02-28T13:44:19;9.20;99.90
22235;DHT22;11286;45.596;5.284;2023-02-28T14:05:40;10.00;99.90
22235;DHT22;11286;45.596;5.284;2023-02-28T14:10:45;10.00;99.90
22235;DHT22;11286;45.596;5.284;2023-02-28T14:13:17;9.80;99.90
22235;DHT22;11286;45.596;5.284;2023-02-28T14:16:03;9.50;99.90
22235;DHT22;11286;45.596;5.284;2023-02-28T14:18:36;9.80;99.90
22235;DHT22;11286;45.596;5.284;2023-02-28T14:21:22;9.70;99.90
22235;DHT22;11286;45.596;5.284;2023-02-28T14:37:48;10.00;99.90
22235;DHT22;11286;45.596;5.284;2023-02-28T14:40:31;9.70;99.90
22235;DHT22;11286;45.596;5.284;2023-02-28T14:43:01;9.50;99.90
22235;DHT22;11286;45.596;5.284;2023-02-28T14:45:29;9.70;99.90
22235;DHT22;11286;45.596;5.284;2023-02-28T14:47:57;9.40;99.90
22235;DHT22;11286;45.596;5.284;2023-02-28T14:50:35;9.20;99.90
22235;DHT22;11286;45.596;5.284;2023-02-28T14:53:03;9.10;99.90
22235;DHT22;11286;45.596;5.284;2023-02-28T14:55:34;9.10;99.90
22235;DHT22;11286;45.596;5.284;2023-02-28T14:58:03;9.20;99.90
22235;DHT22;11286;45.596;5.284;2023-02-28T15:00:34;9.30;99.90
22235;DHT22;11286;45.596;5.284;2023-02-28T15:03:22;9.20;99.90
22235;DHT22;11286;45.596;5.284;2023-02-28T15:05:53;9.40;99.90
22235;DHT22;11286;45.596;5.284;2023-02-28T15:08:19;8.80;99.90
22235;DHT22;11286;45.596;5.284;2023-02-28T15:11:00;8.80;99.90
22235;DHT22;11286;45.596;5.284;2023-02-28T15:16:03;8.40;99.90
22235;DHT22;11286;45.596;5.284;2023-02-28T15:18:52;8.30;99.90
22235;DHT22;11286;45.596;5.284;2023-02-28T15:21:32;8.50;99.90
22235;DHT22;11286;45.596;5.284;2023-02-28T15:26:34;8.70;99.90
22235;DHT22;11286;45.596;5.284;2023-02-28T15:29:06;8.50;99.90
22235;DHT22;11286;45.596;5.284;2023-02-28T15:31:35;8.00;99.90
22235;DHT22;11286;45.596;5.284;2023-02-28T15:34:05;8.30;99.90
22235;DHT22;11286;45.596;5.284;2023-02-28T15:36:34;8.20;99.90
22235;DHT22;11286;45.596;5.284;2023-02-28T15:39:16;7.70;99.90
22235;DHT22;11286;45.596;5.284;2023-02-28T15:41:43;8.10;99.90
22235;DHT22;11286;45.596;5.284;2023-02-28T15:44:27;7.90;99.90
22235;DHT22;11286;45.596;5.284;2023-02-28T15:47:06;8.10;99.90
22235;DHT22;11286;45.596;5.284;2023-02-28T15:49:47;8.00;99.90
22235;DHT22;11286;45.596;5.284;2023-02-28T15:52:38;7.30;99.90
22235;DHT22;11286;45.596;5.284;2023-02-28T15:55:19;7.50;99.90
22235;DHT22;11286;45.596;5.284;2023-02-28T15:57:47;7.20;99.90
22235;DHT22;11286;45.596;5.284;2023-02-28T16:00:16;7.00;99.90
22235;DHT22;11286;45.596;5.284;2023-02-28T16:02:43;7.20;99.90
22235;DHT22;11286;45.596;5.284;2023-02-28T16:07:39;7.10;99.90
22235;DHT22;11286;45.596;5.284;2023-02-28T16:10:08;7.20;99.90
22235;DHT22;11286;45.596;5.284;2023-02-28T16:12:35;6.80;99.90
22235;DHT22;11286;45.596;5.284;2023-02-28T16:15:07;7.00;99.90
22235;DHT22;11286;45.596;5.284;2023-02-28T16:17:35;6.90;99.90
22235;DHT22;11286;45.596;5.284;2023-02-28T16:23:01;6.90;99.90
22235;DHT22;11286;45.596;5.284;2023-02-28T16:25:42;6.90;99.90
22235;DHT22;11286;45.596;5.284;2023-02-28T16:28:19;6.80;99.90
22235;DHT22;11286;45.596;5.284;2023-02-28T16:30:45;7.00;99.90
22235;DHT22;11286;45.596;5.284;2023-02-28T16:33:11;6.90;99.90
22235;DHT22;11286;45.596;5.284;2023-02-28T16:35:37;6.80;99.90
22235;DHT22;11286;45.596;5.284;2023-02-28T16:38:03;6.90;99.90
22235;DHT22;11286;45.596;5.284;2023-02-28T16:40:30;6.90;99.90
22235;DHT22;11286;45.596;5.284;2023-02-28T16:42:59;6.80;99.90
22235;DHT22;11286;45.596;5.284;2023-02-28T16:45:27;6.80;99.90
22235;DHT22;11286;45.596;5.284;2023-02-28T16:47:54;6.50;99.90
22235;DHT22;11286;45.596;5.284;2023-02-28T16:50:22;7.00;99.90
22235;DHT22;11286;45.596;5.284;2023-02-28T16:52:48;6.40;99.90
22235;DHT22;11286;45.596;5.284;2023-02-28T16:55:15;6.60;99.90
22235;DHT22;11286;45.596;5.284;2023-02-28T16:57:41;6.90;99.90
22235;DHT22;11286;45.596;5.284;2023-02-28T17:00:12;6.80;99.90
22235;DHT22;11286;45.596;5.284;2023-02-28T17:02:38;6.40;99.90
22235;DHT22;11286;45.596;5.284;2023-02-28T17:05:04;6.60;99.90
22235;DHT22;11286;45.596;5.284;2023-02-28T17:07:30;6.60;99.90
22235;DHT22;11286;45.596;5.284;2023-02-28T17:09:55;6.20;99.90
22235;DHT22;11286;45.596;5.284;2023-02-28T17:12:21;6.70;99.90
22235;DHT22;11286;45.596;5.284;2023-02-28T17:14:47;6.20;99.90
22235;DHT22;11286;45.596;5.284;2023-02-28T17:17:21;6.20;99.90
22235;DHT22;11286;45.596;5.284;2023-02-28T17:19:47;6.10;99.90
22235;DHT22;11286;45.596;5.284;2023-02-28T17:22:13;6.20;99.90
22235;DHT22;11286;45.596;5.284;2023-02-28T17:24:39;6.50;99.90
22235;DHT22;11286;45.596;5.284;2023-02-28T17:27:04;6.70;99.90
22235;DHT22;11286;45.596;5.284;2023-02-28T17:29:31;6.20;99.90
22235;DHT22;11286;45.596;5.284;2023-02-28T17:31:56;6.20;99.90
22235;DHT22;11286;45.596;5.284;2023-02-28T17:34:22;6.30;99.90
22235;DHT22;11286;45.596;5.284;2023-02-28T17:36:49;5.90;99.90
22235;DHT22;11286;45.596;5.284;2023-02-28T17:39:16;5.90;99.90
22235;DHT22;11286;45.596;5.284;2023-02-28T17:41:53;5.70;99.90
22235;DHT22;11286;45.596;5.284;2023-02-28T17:44:20;5.80;99.90
22235;DHT22;11286;45.596;5.284;2023-02-28T17:46:46;5.90;99.90
22235;DHT22;11286;45.596;5.284;2023-02-28T17:49:12;6.00;99.90
22235;DHT22;11286;45.596;5.284;2023-02-28T17:51:38;5.90;99.90
22235;DHT22;11286;45.596;5.284;2023-02-28T17:54:04;6.00;99.90
22235;DHT22;11286;45.596;5.284;2023-02-28T17:56:30;5.90;99.90
22235;DHT22;11286;45.596;5.284;2023-02-28T17:58:56;6.10;99.90
22235;DHT22;11286;45.596;5.284;2023-02-28T18:01:22;5.90;99.90
22235;DHT22;11286;45.596;5.284;2023-02-28T18:03:50;5.90;99.90
22235;DHT22;11286;45.596;5.284;2023-02-28T18:06:25;6.20;99.90
22235;DHT22;11286;45.596;5.284;2023-02-28T18:08:52;5.90;99.90
22235;DHT22;11286;45.596;5.284;2023-02-28T18:11:19;5.70;99.90
22235;DHT22;11286;45.596;5.284;2023-02-28T18:13:46;5.50;99.90
22235;DHT22;11286;45.596;5.284;2023-02-28T18:16:13;5.50;99.90
22235;DHT22;11286;45.596;5.284;2023-02-28T18:18:39;5.60;99.90
22235;DHT22;11286;45.596;5.284;2023-02-28T18:21:06;5.50;99.90
22235;DHT22;11286;45.596;5.284;2023-02-28T18:23:33;6.40;99.90
22235;DHT22;11286;45.596;5.284;2023-02-28T18:25:59;5.70;99.90
22235;DHT22;11286;45.596;5.284;2023-02-28T18:28:25;5.50;99.90
22235;DHT22;11286;45.596;5.284;2023-02-28T18:30:50;5.60;99.90
22235;DHT22;11286;45.596;5.284;2023-02-28T18:33:16;5.60;99.90
22235;DHT22;11286;45.596;5.284;2023-02-28T18:35:42;5.40;99.90
22235;DHT22;11286;45.596;5.284;2023-02-28T18:38:13;5.80;99.90